createdAt,value
2022-11-08T00:01:32.306Z,1.65
2022-11-08T00:06:54.411Z,2.03
2022-11-08T00:12:15.100Z,2.70
2022-11-08T00:17:18.043Z,1.83
2022-11-08T00:22:20.128Z,1.95
2022-11-08T00:27:23.295Z,1.52
2022-11-08T00:32:26.518Z,1.55
2022-11-08T00:37:28.185Z,1.25
2022-11-08T00:42:29.906Z,2.30
2022-11-08T00:47:31.560Z,1.63
2022-11-08T00:52:33.241Z,2.33
2022-11-08T00:57:54.103Z,2.30
2022-11-08T01:03:15.004Z,1.90
2022-11-08T01:08:18.061Z,1.85
2022-11-08T01:13:20.561Z,1.63
2022-11-08T01:18:22.370Z,1.65
2022-11-08T01:23:24.051Z,2.15
2022-11-08T01:28:25.709Z,1.65
2022-11-08T01:33:27.466Z,1.70
2022-11-08T01:38:29.140Z,1.98
2022-11-08T01:43:30.751Z,2.00
2022-11-08T01:48:32.462Z,1.63
2022-11-08T01:53:34.607Z,2.05
2022-11-08T01:58:38.507Z,1.83
2022-11-08T02:03:41.614Z,1.95
2022-11-08T02:08:44.816Z,1.58
2022-11-08T02:13:46.559Z,1.88
2022-11-08T02:18:49.530Z,2.28
2022-11-08T02:24:06.903Z,1.77
2022-11-08T02:29:27.671Z,1.92
2022-11-08T02:34:38.433Z,2.03
2022-11-08T02:39:40.127Z,2.53
2022-11-08T02:44:41.835Z,2.08
2022-11-08T02:49:43.630Z,1.80
2022-11-08T02:54:45.404Z,1.77
2022-11-08T02:59:48.749Z,1.35
2022-11-08T03:04:50.395Z,2.25
2022-11-08T03:09:52.125Z,1.80
2022-11-08T03:14:53.805Z,2.17
2022-11-08T03:19:56.221Z,1.42
2022-11-08T03:24:57.887Z,1.70
2022-11-08T03:29:59.544Z,1.92
2022-11-08T03:35:01.207Z,2.03
2022-11-08T03:40:02.987Z,1.67
2022-11-08T03:45:04.884Z,1.15
2022-11-08T03:50:08.243Z,1.60
2022-11-08T03:55:10.963Z,1.58
2022-11-08T04:00:14.343Z,2.10
2022-11-08T04:05:16.593Z,1.95
2022-11-08T04:10:18.525Z,1.23
2022-11-08T04:15:22.832Z,2.03
2022-11-08T04:20:42.843Z,1.63
2022-11-08T04:25:45.376Z,1.58
2022-11-08T04:30:52.721Z,1.80
2022-11-08T04:35:54.436Z,1.48
2022-11-08T04:41:04.326Z,1.45
2022-11-08T04:46:09.232Z,1.80
2022-11-08T04:51:28.621Z,4.13
2022-11-08T04:56:31.356Z,1.95
2022-11-08T05:01:33.221Z,1.95
2022-11-08T05:06:35.002Z,2.42
2022-11-08T05:11:37.203Z,2.30
2022-11-08T05:16:38.896Z,2.40
2022-11-08T05:21:59.211Z,2.17
2022-11-08T05:27:00.882Z,2.25
2022-11-08T05:32:02.572Z,2.78
2022-11-08T05:37:04.343Z,3.42
2022-11-08T05:42:06.118Z,2.78
2022-11-08T05:47:08.134Z,3.05
2022-11-08T05:52:09.825Z,3.28
2022-11-08T05:57:12.488Z,3.70
2022-11-08T06:02:14.307Z,3.33
2022-11-08T06:07:16.184Z,3.88
2022-11-08T06:12:18.091Z,5.25
2022-11-08T06:17:19.750Z,7.20
2022-11-08T06:22:21.824Z,7.32
2022-11-08T06:27:23.805Z,7.43
2022-11-08T06:32:25.489Z,5.80
2022-11-08T06:37:27.195Z,6.43
2022-11-08T06:42:28.978Z,7.38
2022-11-08T06:47:30.636Z,6.68
2022-11-08T06:52:32.491Z,6.03
2022-11-08T06:57:34.312Z,6.07
2022-11-08T07:02:36.272Z,7.45
2022-11-08T07:07:38.454Z,11.38
2022-11-08T07:12:40.265Z,9.32
2022-11-08T07:17:42.091Z,7.45
2022-11-08T07:22:43.791Z,6.55
2022-11-08T07:27:45.482Z,6.05
2022-11-08T07:32:47.216Z,6.75
2022-11-08T07:37:49.011Z,6.45
2022-11-08T07:43:11.401Z,8.25
2022-11-08T07:48:13.986Z,8.07
2022-11-08T07:53:16.141Z,7.57
2022-11-08T07:58:18.027Z,7.47
2022-11-08T08:03:20.076Z,5.72
2022-11-08T08:08:22.648Z,5.38
2022-11-08T08:13:24.316Z,5.53
2022-11-08T08:18:26.169Z,3.80
2022-11-08T08:23:28.976Z,3.60
2022-11-08T08:28:30.713Z,3.50
2022-11-08T08:33:33.311Z,4.85
2022-11-08T08:38:38.688Z,4.93
2022-11-08T08:43:43.230Z,5.45
2022-11-08T08:48:44.887Z,6.00
2022-11-08T08:53:46.547Z,3.83
2022-11-08T09:04:12.790Z,4.93
2022-11-08T09:09:14.460Z,5.78
2022-11-08T09:14:16.133Z,5.25
2022-11-08T09:19:17.838Z,5.88
2022-11-08T09:24:20.138Z,6.30
2022-11-08T09:29:21.867Z,6.10
2022-11-08T09:34:23.656Z,6.50
2022-11-08T09:39:25.456Z,5.32
2022-11-08T09:44:39.086Z,6.22
2022-11-08T09:49:45.881Z,4.70
2022-11-08T09:54:48.683Z,4.50
2022-11-08T09:59:56.549Z,5.05
2022-11-08T10:05:09.474Z,4.53
2022-11-08T10:10:17.035Z,4.50
2022-11-08T10:15:30.254Z,4.97
2022-11-08T10:21:00.619Z,4.43
2022-11-08T10:26:24.151Z,2.65
2022-11-08T10:31:33.146Z,1.73
2022-11-08T10:36:38.852Z,1.35
2022-11-08T10:41:44.725Z,1.35
2022-11-08T10:46:57.532Z,1.48
2022-11-08T10:52:01.379Z,1.35
2022-11-08T10:57:03.147Z,1.00
2022-11-08T11:02:18.918Z,1.20
2022-11-08T11:07:33.220Z,1.80
2022-11-08T11:12:34.879Z,0.98
2022-11-08T11:17:39.086Z,1.40
2022-11-08T11:22:46.665Z,1.20
2022-11-08T11:27:58.440Z,1.42
2022-11-08T11:33:09.406Z,1.20
2022-11-08T11:38:23.702Z,1.52
2022-11-08T11:43:35.948Z,1.58
2022-11-08T11:48:45.844Z,1.30
2022-11-08T11:53:48.967Z,1.60
2022-11-08T11:59:12.655Z,1.40
2022-11-08T12:04:24.359Z,1.17
2022-11-08T12:09:57.730Z,1.67
2022-11-08T12:15:17.307Z,1.38
2022-11-08T12:20:38.668Z,1.30
2022-11-08T12:26:15.445Z,1.58
2022-11-08T12:31:38.883Z,1.80
2022-11-08T12:37:11.735Z,1.63
2022-11-08T12:42:50.789Z,1.70
2022-11-08T12:48:12.205Z,1.70
2022-11-08T12:53:49.048Z,1.85
2022-11-08T12:58:53.542Z,1.40
2022-11-08T13:04:05.796Z,1.45
2022-11-08T13:09:23.399Z,2.00
2022-11-08T13:14:26.126Z,2.00
2022-11-08T13:19:29.751Z,1.80
2022-11-08T13:24:49.814Z,1.77
2022-11-08T13:29:53.319Z,1.50
2022-11-08T13:35:36.382Z,1.50
2022-11-08T13:40:59.664Z,2.03
2022-11-08T13:46:27.001Z,1.77
2022-11-08T13:51:31.144Z,1.00
2022-11-08T13:56:42.300Z,2.00
2022-11-08T14:01:46.784Z,2.05
2022-11-08T14:07:03.469Z,1.50
2022-11-08T14:12:22.853Z,1.45
2022-11-08T14:17:58.481Z,1.52
2022-11-08T14:23:14.728Z,1.25
2022-11-08T14:28:27.776Z,1.65
2022-11-08T14:33:31.657Z,2.10
2022-11-08T14:38:37.920Z,1.92
2022-11-08T14:43:45.363Z,2.30
2022-11-08T14:48:54.777Z,1.77
2022-11-08T14:53:56.760Z,2.13
2022-11-08T14:58:58.479Z,1.85
2022-11-08T15:04:19.156Z,2.20
2022-11-08T15:09:25.961Z,1.92
2022-11-08T15:14:30.933Z,2.65
2022-11-08T15:19:46.483Z,2.45
2022-11-08T15:24:48.586Z,2.30
2022-11-08T15:29:53.923Z,2.70
2022-11-08T15:34:56.898Z,2.97
2022-11-08T15:40:02.919Z,2.83
2022-11-08T15:45:13.700Z,2.17
2022-11-08T15:50:22.699Z,2.40
2022-11-08T15:55:29.645Z,2.40
2022-11-08T16:00:34.983Z,2.75
2022-11-08T16:05:36.817Z,4.03
2022-11-08T16:10:42.510Z,3.80
2022-11-08T16:15:45.752Z,3.80
2022-11-08T16:20:47.625Z,4.90
2022-11-08T16:25:51.306Z,4.70
2022-11-08T16:30:53.746Z,4.38
2022-11-08T16:35:58.608Z,4.28
2022-11-08T16:41:00.279Z,3.63
2022-11-08T16:46:07.128Z,3.88
2022-11-08T16:51:16.751Z,4.53
2022-11-08T16:56:18.473Z,4.50
2022-11-08T17:01:33.307Z,3.85
2022-11-08T17:06:35.098Z,5.07
2022-11-08T17:11:38.634Z,5.50
2022-11-08T17:16:40.332Z,4.50
2022-11-08T17:21:45.040Z,4.75
2022-11-08T17:26:47.605Z,3.83
2022-11-08T17:31:49.833Z,7.25
2022-11-08T17:36:52.904Z,5.03
2022-11-08T17:41:54.625Z,7.45
2022-11-08T17:46:56.447Z,7.32
2022-11-08T17:51:58.262Z,7.30
2022-11-08T17:57:00.072Z,7.97
2022-11-08T18:02:02.020Z,6.43
2022-11-08T18:07:04.157Z,5.32
2022-11-08T18:12:06.216Z,5.10
2022-11-08T18:17:08.277Z,6.57
2022-11-08T18:22:10.781Z,6.80
2022-11-08T18:27:12.569Z,5.95
2022-11-08T18:32:14.330Z,6.72
2022-11-08T18:37:16.112Z,7.05
2022-11-08T18:42:17.796Z,5.18
2022-11-08T18:47:19.912Z,8.98
2022-11-08T18:52:21.721Z,7.53
2022-11-08T18:57:23.415Z,8.43
2022-11-08T19:02:25.216Z,7.05
2022-11-08T19:07:27.653Z,8.55
2022-11-08T19:12:29.914Z,7.50
2022-11-08T19:17:32.967Z,8.23
2022-11-08T19:22:34.659Z,8.45
2022-11-08T19:27:36.379Z,7.95
2022-11-08T19:32:38.124Z,6.80
2022-11-08T19:37:39.986Z,7.55
2022-11-08T19:42:41.707Z,7.80
2022-11-08T19:47:43.452Z,7.45
2022-11-08T19:52:45.190Z,8.68
2022-11-08T19:57:47.519Z,8.93
2022-11-08T20:02:50.940Z,8.13
2022-11-08T20:07:52.600Z,8.60
2022-11-08T20:12:54.320Z,7.85
2022-11-08T20:17:55.988Z,6.57
2022-11-08T20:22:57.753Z,6.20
2022-11-08T20:27:59.520Z,7.03
2022-11-08T20:33:01.255Z,7.03
2022-11-08T20:38:02.916Z,5.97
2022-11-08T20:43:04.616Z,6.57
2022-11-08T20:48:06.771Z,6.28
2022-11-08T20:53:08.617Z,6.15
2022-11-08T20:58:10.325Z,6.55
2022-11-08T21:03:18.701Z,6.32
2022-11-08T21:08:58.545Z,6.97
2022-11-08T21:13:44.173Z,7.30
2022-11-08T21:18:45.888Z,7.15
2022-11-08T21:23:48.269Z,7.05
2022-11-08T21:28:50.003Z,7.10
2022-11-08T21:33:52.421Z,7.20
2022-11-08T21:38:54.269Z,6.65
2022-11-08T21:43:55.918Z,7.25
2022-11-08T21:49:00.191Z,7.03
2022-11-08T21:54:01.848Z,8.10
2022-11-08T21:59:03.863Z,7.03
2022-11-08T22:04:05.523Z,8.45
2022-11-08T22:09:07.175Z,8.32
2022-11-08T22:14:08.852Z,7.70
2022-11-08T22:19:10.762Z,9.70
2022-11-08T22:24:15.021Z,7.85
2022-11-08T22:29:17.309Z,8.95
2022-11-08T22:34:19.042Z,8.15
2022-11-08T22:39:22.827Z,8.80
2022-11-08T22:44:24.678Z,9.32
2022-11-08T22:49:26.340Z,8.60
2022-11-08T22:54:28.049Z,8.40
2022-11-08T22:59:29.749Z,8.30
2022-11-08T23:04:31.443Z,8.07
2022-11-08T23:09:33.205Z,9.13
2022-11-08T23:14:53.579Z,8.45
2022-11-08T23:20:13.687Z,6.80
2022-11-08T23:25:15.460Z,7.95
2022-11-08T23:30:36.581Z,8.40
2022-11-08T23:35:38.317Z,7.47
2022-11-08T23:40:58.595Z,7.93
2022-11-08T23:46:08.592Z,7.00
2022-11-08T23:51:10.326Z,7.53
2022-11-08T23:56:20.168Z,8.27
